sensor_id;sensor_type;location;lat;lon;timestamp;temperature;humidity
3980;DHT22;2004;52.452;13.120;2023-09-19T00:07:07;18.20;99.90
3980;DHT22;2004;52.452;13.120;2023-09-19T00:14:59;18.10;99.90
3980;DHT22;2004;52.452;13.120;2023-09-19T00:22:51;18.10;99.90
3980;DHT22;2004;52.452;13.120;2023-09-19T00:30:45;18.20;99.90
3980;DHT22;2004;52.452;13.120;2023-09-19T00:38:37;18.10;99.90
3980;DHT22;2004;52.452;13.120;2023-09-19T00:46:28;18.10;99.90
3980;DHT22;2004;52.452;13.120;2023-09-19T00:54:19;18.10;99.90
3980;DHT22;2004;52.452;13.120;2023-09-19T01:02:10;18.00;99.90
3980;DHT22;2004;52.452;13.120;2023-09-19T01:10:05;18.00;99.90
3980;DHT22;2004;52.452;13.120;2023-09-19T01:26:11;18.00;99.90
3980;DHT22;2004;52.452;13.120;2023-09-19T01:34:05;18.00;99.90
3980;DHT22;2004;52.452;13.120;2023-09-19T01:42:10;18.00;99.90
3980;DHT22;2004;52.452;13.120;2023-09-19T01:58:25;17.90;99.90
3980;DHT22;2004;52.452;13.120;2023-09-19T02:06:18;17.90;99.90
3980;DHT22;2004;52.452;13.120;2023-09-19T02:14:09;17.90;99.90
3980;DHT22;2004;52.452;13.120;2023-09-19T02:22:00;17.80;99.90
3980;DHT22;2004;52.452;13.120;2023-09-19T02:29:53;17.80;99.90
3980;DHT22;2004;52.452;13.120;2023-09-19T02:37:44;17.80;99.90
3980;DHT22;2004;52.452;13.120;2023-09-19T02:45:35;17.80;99.90
3980;DHT22;2004;52.452;13.120;2023-09-19T02:53:26;17.70;99.90
3980;DHT22;2004;52.452;13.120;2023-09-19T03:01:17;17.70;99.90
3980;DHT22;2004;52.452;13.120;2023-09-19T03:09:08;17.60;99.90
3980;DHT22;2004;52.452;13.120;2023-09-19T03:17:04;17.60;99.90
3980;DHT22;2004;52.452;13.120;2023-09-19T03:24:55;17.60;99.90
3980;DHT22;2004;52.452;13.120;2023-09-19T03:32:47;17.50;99.90
3980;DHT22;2004;52.452;13.120;2023-09-19T03:40:40;17.50;99.90
3980;DHT22;2004;52.452;13.120;2023-09-19T03:48:30;17.40;99.90
3980;DHT22;2004;52.452;13.120;2023-09-19T03:56:21;17.40;99.90
3980;DHT22;2004;52.452;13.120;2023-09-19T04:04:11;17.40;99.90
3980;DHT22;2004;52.452;13.120;2023-09-19T04:12:05;17.30;99.90
3980;DHT22;2004;52.452;13.120;2023-09-19T04:19:55;17.30;99.90
3980;DHT22;2004;52.452;13.120;2023-09-19T04:27:46;17.20;99.90
3980;DHT22;2004;52.452;13.120;2023-09-19T04:35:37;17.20;99.90
3980;DHT22;2004;52.452;13.120;2023-09-19T04:43:29;17.10;99.90
3980;DHT22;2004;52.452;13.120;2023-09-19T04:51:20;17.10;99.90
3980;DHT22;2004;52.452;13.120;2023-09-19T04:59:11;17.00;99.90
3980;DHT22;2004;52.452;13.120;2023-09-19T05:07:01;16.90;99.90
3980;DHT22;2004;52.452;13.120;2023-09-19T05:14:53;16.90;99.90
3980;DHT22;2004;52.452;13.120;2023-09-19T05:22:44;16.80;99.90
3980;DHT22;2004;52.452;13.120;2023-09-19T05:30:36;16.80;99.90
3980;DHT22;2004;52.452;13.120;2023-09-19T05:38:28;16.80;99.90
3980;DHT22;2004;52.452;13.120;2023-09-19T05:46:19;16.70;99.90
3980;DHT22;2004;52.452;13.120;2023-09-19T05:54:10;16.70;99.90
3980;DHT22;2004;52.452;13.120;2023-09-19T06:02:01;16.70;99.90
3980;DHT22;2004;52.452;13.120;2023-09-19T06:09:52;16.70;99.90
3980;DHT22;2004;52.452;13.120;2023-09-19T06:17:47;16.70;99.90
3980;DHT22;2004;52.452;13.120;2023-09-19T06:25:38;16.80;99.90
3980;DHT22;2004;52.452;13.120;2023-09-19T06:33:29;16.80;99.90
3980;DHT22;2004;52.452;13.120;2023-09-19T06:41:21;16.90;99.90
3980;DHT22;2004;52.452;13.120;2023-09-19T06:49:15;17.10;99.90
3980;DHT22;2004;52.452;13.120;2023-09-19T06:57:05;17.20;99.90
3980;DHT22;2004;52.452;13.120;2023-09-19T07:04:56;17.40;99.90
3980;DHT22;2004;52.452;13.120;2023-09-19T07:12:47;17.50;99.90
3980;DHT22;2004;52.452;13.120;2023-09-19T07:20:37;17.60;99.90
3980;DHT22;2004;52.452;13.120;2023-09-19T07:28:28;17.70;99.90
3980;DHT22;2004;52.452;13.120;2023-09-19T07:36:20;17.70;99.90
3980;DHT22;2004;52.452;13.120;2023-09-19T07:44:10;17.70;99.90
3980;DHT22;2004;52.452;13.120;2023-09-19T07:52:01;17.90;99.90
3980;DHT22;2004;52.452;13.120;2023-09-19T07:59:53;18.00;99.90
3980;DHT22;2004;52.452;13.120;2023-09-19T08:07:45;18.00;99.90
3980;DHT22;2004;52.452;13.120;2023-09-19T08:15:43;17.90;99.90
3980;DHT22;2004;52.452;13.120;2023-09-19T08:23:34;17.80;99.90
3980;DHT22;2004;52.452;13.120;2023-09-19T08:31:25;17.70;99.90
3980;DHT22;2004;52.452;13.120;2023-09-19T08:39:17;17.60;99.90
3980;DHT22;2004;52.452;13.120;2023-09-19T08:47:10;17.70;99.90
3980;DHT22;2004;52.452;13.120;2023-09-19T08:55:03;17.70;99.90
3980;DHT22;2004;52.452;13.120;2023-09-19T09:03:01;17.70;99.90
3980;DHT22;2004;52.452;13.120;2023-09-19T09:10:53;17.90;99.90
3980;DHT22;2004;52.452;13.120;2023-09-19T09:18:45;18.10;99.90
3980;DHT22;2004;52.452;13.120;2023-09-19T09:34:33;18.10;99.90
3980;DHT22;2004;52.452;13.120;2023-09-19T09:42:32;18.00;99.90
3980;DHT22;2004;52.452;13.120;2023-09-19T09:50:25;18.10;99.90
3980;DHT22;2004;52.452;13.120;2023-09-19T09:58:20;18.10;99.90
3980;DHT22;2004;52.452;13.120;2023-09-19T10:06:16;18.20;99.90
3980;DHT22;2004;52.452;13.120;2023-09-19T10:14:17;18.20;99.90
3980;DHT22;2004;52.452;13.120;2023-09-19T10:22:11;18.30;99.90
3980;DHT22;2004;52.452;13.120;2023-09-19T10:30:03;18.50;99.90
3980;DHT22;2004;52.452;13.120;2023-09-19T10:38:02;18.70;99.90
3980;DHT22;2004;52.452;13.120;2023-09-19T10:45:57;18.90;99.90
3980;DHT22;2004;52.452;13.120;2023-09-19T10:54:06;19.00;99.90
3980;DHT22;2004;52.452;13.120;2023-09-19T11:02:16;19.00;99.90
3980;DHT22;2004;52.452;13.120;2023-09-19T11:10:46;19.20;99.90
3980;DHT22;2004;52.452;13.120;2023-09-19T11:26:41;19.30;98.00
3980;DHT22;2004;52.452;13.120;2023-09-19T11:34:40;19.40;97.20
3980;DHT22;2004;52.452;13.120;2023-09-19T11:42:46;19.40;95.20
3980;DHT22;2004;52.452;13.120;2023-09-19T11:50:42;19.30;95.70
3980;DHT22;2004;52.452;13.120;2023-09-19T11:58:34;19.40;94.40
3980;DHT22;2004;52.452;13.120;2023-09-19T12:06:26;19.40;93.10
3980;DHT22;2004;52.452;13.120;2023-09-19T12:14:24;19.40;92.80
3980;DHT22;2004;52.452;13.120;2023-09-19T12:22:16;19.60;91.40
3980;DHT22;2004;52.452;13.120;2023-09-19T12:30:12;19.60;91.40
3980;DHT22;2004;52.452;13.120;2023-09-19T12:38:07;19.70;92.40
3980;DHT22;2004;52.452;13.120;2023-09-19T12:45:58;19.80;91.20
3980;DHT22;2004;52.452;13.120;2023-09-19T12:53:57;19.80;91.20
3980;DHT22;2004;52.452;13.120;2023-09-19T13:02:03;19.80;91.00
3980;DHT22;2004;52.452;13.120;2023-09-19T13:10:04;19.90;91.60
3980;DHT22;2004;52.452;13.120;2023-09-19T13:17:55;19.90;90.40
3980;DHT22;2004;52.452;13.120;2023-09-19T13:25:50;19.80;89.00
3980;DHT22;2004;52.452;13.120;2023-09-19T13:33:44;19.90;90.20
3980;DHT22;2004;52.452;13.120;2023-09-19T13:41:36;19.90;90.00
3980;DHT22;2004;52.452;13.120;2023-09-19T13:49:29;19.90;89.80
3980;DHT22;2004;52.452;13.120;2023-09-19T13:57:26;20.00;90.00
3980;DHT22;2004;52.452;13.120;2023-09-19T14:05:16;20.00;89.30
3980;DHT22;2004;52.452;13.120;2023-09-19T14:13:07;20.10;89.70
3980;DHT22;2004;52.452;13.120;2023-09-19T14:20:57;20.10;90.20
3980;DHT22;2004;52.452;13.120;2023-09-19T14:28:48;20.10;90.20
3980;DHT22;2004;52.452;13.120;2023-09-19T14:36:39;20.00;88.10
3980;DHT22;2004;52.452;13.120;2023-09-19T14:44:29;20.10;89.30
3980;DHT22;2004;52.452;13.120;2023-09-19T14:52:20;20.10;89.20
3980;DHT22;2004;52.452;13.120;2023-09-19T15:00:12;20.00;89.30
3980;DHT22;2004;52.452;13.120;2023-09-19T15:08:03;20.00;88.40
3980;DHT22;2004;52.452;13.120;2023-09-19T15:15:53;20.00;86.90
3980;DHT22;2004;52.452;13.120;2023-09-19T15:23:44;20.00;87.60
3980;DHT22;2004;52.452;13.120;2023-09-19T15:31:36;20.00;87.30
3980;DHT22;2004;52.452;13.120;2023-09-19T15:39:32;20.00;86.90
3980;DHT22;2004;52.452;13.120;2023-09-19T15:47:27;20.00;84.80
3980;DHT22;2004;52.452;13.120;2023-09-19T15:55:17;20.00;85.30
3980;DHT22;2004;52.452;13.120;2023-09-19T16:03:08;20.00;86.00
3980;DHT22;2004;52.452;13.120;2023-09-19T16:10:58;19.90;86.00
3980;DHT22;2004;52.452;13.120;2023-09-19T16:18:53;19.90;87.40
3980;DHT22;2004;52.452;13.120;2023-09-19T16:26:47;19.80;86.70
3980;DHT22;2004;52.452;13.120;2023-09-19T16:34:39;19.70;86.70
3980;DHT22;2004;52.452;13.120;2023-09-19T16:42:30;19.70;87.10
3980;DHT22;2004;52.452;13.120;2023-09-19T16:50:20;19.50;88.40
3980;DHT22;2004;52.452;13.120;2023-09-19T16:58:11;19.40;90.30
3980;DHT22;2004;52.452;13.120;2023-09-19T17:06:01;19.20;92.50
3980;DHT22;2004;52.452;13.120;2023-09-19T17:13:54;19.10;92.90
3980;DHT22;2004;52.452;13.120;2023-09-19T17:21:44;18.90;93.40
3980;DHT22;2004;52.452;13.120;2023-09-19T17:29:35;18.70;91.60
3980;DHT22;2004;52.452;13.120;2023-09-19T17:37:25;18.60;93.50
3980;DHT22;2004;52.452;13.120;2023-09-19T17:45:16;18.40;93.00
3980;DHT22;2004;52.452;13.120;2023-09-19T17:53:06;18.30;93.10
3980;DHT22;2004;52.452;13.120;2023-09-19T18:01:07;18.20;92.20
3980;DHT22;2004;52.452;13.120;2023-09-19T18:09:00;18.10;92.60
3980;DHT22;2004;52.452;13.120;2023-09-19T18:16:51;18.10;92.20
3980;DHT22;2004;52.452;13.120;2023-09-19T18:24:46;18.00;92.50
3980;DHT22;2004;52.452;13.120;2023-09-19T18:32:36;18.00;91.70
3980;DHT22;2004;52.452;13.120;2023-09-19T18:40:28;18.00;92.40
3980;DHT22;2004;52.452;13.120;2023-09-19T18:48:18;18.00;93.10
3980;DHT22;2004;52.452;13.120;2023-09-19T18:56:10;18.00;92.80
3980;DHT22;2004;52.452;13.120;2023-09-19T19:04:05;18.00;92.80
3980;DHT22;2004;52.452;13.120;2023-09-19T19:11:56;18.00;92.50
3980;DHT22;2004;52.452;13.120;2023-09-19T19:19:47;17.90;92.60
3980;DHT22;2004;52.452;13.120;2023-09-19T19:27:39;17.90;92.40
3980;DHT22;2004;52.452;13.120;2023-09-19T19:35:30;17.90;92.80
3980;DHT22;2004;52.452;13.120;2023-09-19T19:43:23;17.90;93.00
3980;DHT22;2004;52.452;13.120;2023-09-19T19:51:14;17.80;92.80
3980;DHT22;2004;52.452;13.120;2023-09-19T19:59:04;17.80;93.20
3980;DHT22;2004;52.452;13.120;2023-09-19T20:06:55;17.70;93.20
3980;DHT22;2004;52.452;13.120;2023-09-19T20:14:45;17.70;93.30
3980;DHT22;2004;52.452;13.120;2023-09-19T20:22:36;17.70;93.30
3980;DHT22;2004;52.452;13.120;2023-09-19T20:30:26;17.70;93.10
3980;DHT22;2004;52.452;13.120;2023-09-19T20:38:17;17.70;93.50
3980;DHT22;2004;52.452;13.120;2023-09-19T20:46:08;17.70;93.70
3980;DHT22;2004;52.452;13.120;2023-09-19T20:53:59;17.60;93.70
3980;DHT22;2004;52.452;13.120;2023-09-19T21:01:49;17.60;93.80
3980;DHT22;2004;52.452;13.120;2023-09-19T21:09:41;17.60;93.60
3980;DHT22;2004;52.452;13.120;2023-09-19T21:17:33;17.60;93.50
3980;DHT22;2004;52.452;13.120;2023-09-19T21:25:23;17.60;93.50
3980;DHT22;2004;52.452;13.120;2023-09-19T21:33:14;17.60;93.40
3980;DHT22;2004;52.452;13.120;2023-09-19T21:41:10;17.60;93.30
3980;DHT22;2004;52.452;13.120;2023-09-19T21:49:02;17.60;93.70
3980;DHT22;2004;52.452;13.120;2023-09-19T21:56:52;17.50;93.60
3980;DHT22;2004;52.452;13.120;2023-09-19T22:04:47;17.50;93.40
3980;DHT22;2004;52.452;13.120;2023-09-19T22:12:38;17.50;94.10
3980;DHT22;2004;52.452;13.120;2023-09-19T22:20:30;17.40;94.10
3980;DHT22;2004;52.452;13.120;2023-09-19T22:28:20;17.40;93.80
3980;DHT22;2004;52.452;13.120;2023-09-19T22:36:11;17.40;94.00
3980;DHT22;2004;52.452;13.120;2023-09-19T22:44:02;17.30;94.00
3980;DHT22;2004;52.452;13.120;2023-09-19T22:51:56;17.30;94.00
3980;DHT22;2004;52.452;13.120;2023-09-19T22:59:49;17.30;94.20
3980;DHT22;2004;52.452;13.120;2023-09-19T23:07:42;17.30;94.40
3980;DHT22;2004;52.452;13.120;2023-09-19T23:15:41;17.20;94.70
3980;DHT22;2004;52.452;13.120;2023-09-19T23:23:34;17.10;94.60
3980;DHT22;2004;52.452;13.120;2023-09-19T23:31:25;17.10;94.90
3980;DHT22;2004;52.452;13.120;2023-09-19T23:39:15;17.10;95.00
3980;DHT22;2004;52.452;13.120;2023-09-19T23:47:06;17.10;94.90
3980;DHT22;2004;52.452;13.120;2023-09-19T23:54:57;17.10;95.20
